sensor_id;sensor_type;location;lat;lon;timestamp;temperature;humidity
49224;DHT22;35050;51.316;5.994;2023-06-26T00:02:18;24.90;99.90
49224;DHT22;35050;51.316;5.994;2023-06-26T00:04:44;24.80;99.90
49224;DHT22;35050;51.316;5.994;2023-06-26T00:07:10;24.80;99.90
49224;DHT22;35050;51.316;5.994;2023-06-26T00:09:36;24.70;99.90
49224;DHT22;35050;51.316;5.994;2023-06-26T00:12:02;24.60;99.90
49224;DHT22;35050;51.316;5.994;2023-06-26T00:14:28;24.60;99.90
49224;DHT22;35050;51.316;5.994;2023-06-26T00:16:53;24.50;99.90
49224;DHT22;35050;51.316;5.994;2023-06-26T00:19:19;24.50;99.90
49224;DHT22;35050;51.316;5.994;2023-06-26T00:21:45;24.50;99.90
49224;DHT22;35050;51.316;5.994;2023-06-26T00:24:14;24.50;99.90
49224;DHT22;35050;51.316;5.994;2023-06-26T00:26:40;24.40;99.90
49224;DHT22;35050;51.316;5.994;2023-06-26T00:29:05;24.40;99.90
49224;DHT22;35050;51.316;5.994;2023-06-26T00:31:31;24.40;99.90
49224;DHT22;35050;51.316;5.994;2023-06-26T00:33:57;24.40;99.90
49224;DHT22;35050;51.316;5.994;2023-06-26T00:36:22;24.30;99.90
49224;DHT22;35050;51.316;5.994;2023-06-26T00:38:49;24.20;99.90
49224;DHT22;35050;51.316;5.994;2023-06-26T00:41:15;24.20;99.90
49224;DHT22;35050;51.316;5.994;2023-06-26T00:43:41;24.20;99.90
49224;DHT22;35050;51.316;5.994;2023-06-26T00:46:09;24.10;99.90
49224;DHT22;35050;51.316;5.994;2023-06-26T00:48:36;24.10;99.90
49224;DHT22;35050;51.316;5.994;2023-06-26T00:51:02;23.90;99.90
49224;DHT22;35050;51.316;5.994;2023-06-26T00:53:28;23.80;99.90
49224;DHT22;35050;51.316;5.994;2023-06-26T00:55:55;24.00;99.90
49224;DHT22;35050;51.316;5.994;2023-06-26T00:58:24;23.90;99.90
49224;DHT22;35050;51.316;5.994;2023-06-26T01:00:53;23.80;99.90
49224;DHT22;35050;51.316;5.994;2023-06-26T01:03:20;23.70;99.90
49224;DHT22;35050;51.316;5.994;2023-06-26T01:05:47;23.80;99.90
49224;DHT22;35050;51.316;5.994;2023-06-26T01:08:16;23.70;99.90
49224;DHT22;35050;51.316;5.994;2023-06-26T01:10:42;23.60;99.90
49224;DHT22;35050;51.316;5.994;2023-06-26T01:13:08;23.60;99.90
49224;DHT22;35050;51.316;5.994;2023-06-26T01:15:34;23.70;99.90
49224;DHT22;35050;51.316;5.994;2023-06-26T01:18:01;23.70;99.90
49224;DHT22;35050;51.316;5.994;2023-06-26T01:20:38;23.70;99.90
49224;DHT22;35050;51.316;5.994;2023-06-26T01:23:35;23.70;99.90
49224;DHT22;35050;51.316;5.994;2023-06-26T01:28:34;23.60;99.90
49224;DHT22;35050;51.316;5.994;2023-06-26T01:31:02;23.50;99.90
49224;DHT22;35050;51.316;5.994;2023-06-26T01:33:28;23.50;99.90
49224;DHT22;35050;51.316;5.994;2023-06-26T01:35:54;23.40;99.90
49224;DHT22;35050;51.316;5.994;2023-06-26T01:38:21;23.40;99.90
49224;DHT22;35050;51.316;5.994;2023-06-26T01:40:48;23.20;99.90
49224;DHT22;35050;51.316;5.994;2023-06-26T01:46:06;23.20;99.90
49224;DHT22;35050;51.316;5.994;2023-06-26T01:48:46;23.20;99.90
49224;DHT22;35050;51.316;5.994;2023-06-26T01:51:14;23.20;99.90
49224;DHT22;35050;51.316;5.994;2023-06-26T01:53:46;23.30;99.90
49224;DHT22;35050;51.316;5.994;2023-06-26T01:56:16;23.30;99.90
49224;DHT22;35050;51.316;5.994;2023-06-26T01:58:46;23.50;99.90
49224;DHT22;35050;51.316;5.994;2023-06-26T02:01:12;23.50;99.90
49224;DHT22;35050;51.316;5.994;2023-06-26T02:03:38;23.50;99.90
49224;DHT22;35050;51.316;5.994;2023-06-26T02:06:04;23.40;99.90
49224;DHT22;35050;51.316;5.994;2023-06-26T02:08:29;23.40;99.90
49224;DHT22;35050;51.316;5.994;2023-06-26T02:10:55;23.40;99.90
49224;DHT22;35050;51.316;5.994;2023-06-26T02:13:21;23.40;99.90
49224;DHT22;35050;51.316;5.994;2023-06-26T02:15:46;23.40;99.90
49224;DHT22;35050;51.316;5.994;2023-06-26T02:18:12;23.30;99.90
49224;DHT22;35050;51.316;5.994;2023-06-26T02:20:37;23.40;99.90
49224;DHT22;35050;51.316;5.994;2023-06-26T02:23:03;23.50;99.90
49224;DHT22;35050;51.316;5.994;2023-06-26T02:25:29;23.40;99.90
49224;DHT22;35050;51.316;5.994;2023-06-26T02:27:54;23.30;99.90
49224;DHT22;35050;51.316;5.994;2023-06-26T02:30:20;23.20;99.90
49224;DHT22;35050;51.316;5.994;2023-06-26T02:32:46;23.30;99.90
49224;DHT22;35050;51.316;5.994;2023-06-26T02:35:11;23.30;99.90
49224;DHT22;35050;51.316;5.994;2023-06-26T02:37:37;23.30;99.90
49224;DHT22;35050;51.316;5.994;2023-06-26T02:40:03;23.30;99.90
49224;DHT22;35050;51.316;5.994;2023-06-26T02:42:31;23.30;99.90
49224;DHT22;35050;51.316;5.994;2023-06-26T02:44:57;23.30;99.90
49224;DHT22;35050;51.316;5.994;2023-06-26T02:47:22;23.30;99.90
49224;DHT22;35050;51.316;5.994;2023-06-26T02:49:48;23.10;99.90
49224;DHT22;35050;51.316;5.994;2023-06-26T02:52:13;23.10;99.90
49224;DHT22;35050;51.316;5.994;2023-06-26T02:54:39;23.10;99.90
49224;DHT22;35050;51.316;5.994;2023-06-26T02:57:05;23.20;99.90
49224;DHT22;35050;51.316;5.994;2023-06-26T02:59:30;23.00;99.90
49224;DHT22;35050;51.316;5.994;2023-06-26T03:01:56;22.80;99.90
49224;DHT22;35050;51.316;5.994;2023-06-26T03:04:21;22.70;99.90
49224;DHT22;35050;51.316;5.994;2023-06-26T03:06:47;22.90;99.90
49224;DHT22;35050;51.316;5.994;2023-06-26T03:09:13;22.90;99.90
49224;DHT22;35050;51.316;5.994;2023-06-26T03:11:38;22.90;99.90
49224;DHT22;35050;51.316;5.994;2023-06-26T03:14:04;22.80;99.90
49224;DHT22;35050;51.316;5.994;2023-06-26T03:16:30;22.80;99.90
49224;DHT22;35050;51.316;5.994;2023-06-26T03:18:55;22.80;99.90
49224;DHT22;35050;51.316;5.994;2023-06-26T03:21:21;22.60;99.90
49224;DHT22;35050;51.316;5.994;2023-06-26T03:23:47;22.60;99.90
49224;DHT22;35050;51.316;5.994;2023-06-26T03:26:12;22.80;99.90
49224;DHT22;35050;51.316;5.994;2023-06-26T03:28:40;22.70;99.90
49224;DHT22;35050;51.316;5.994;2023-06-26T03:31:07;22.70;99.90
49224;DHT22;35050;51.316;5.994;2023-06-26T03:33:33;22.60;99.90
49224;DHT22;35050;51.316;5.994;2023-06-26T03:35:58;22.70;99.90
49224;DHT22;35050;51.316;5.994;2023-06-26T03:38:24;22.60;99.90
49224;DHT22;35050;51.316;5.994;2023-06-26T03:40:51;22.70;99.90
49224;DHT22;35050;51.316;5.994;2023-06-26T03:43:17;22.60;99.90
49224;DHT22;35050;51.316;5.994;2023-06-26T03:45:43;22.60;99.90
49224;DHT22;35050;51.316;5.994;2023-06-26T03:48:08;22.50;99.90
49224;DHT22;35050;51.316;5.994;2023-06-26T03:50:34;22.50;99.90
49224;DHT22;35050;51.316;5.994;2023-06-26T03:53:00;22.50;99.90
49224;DHT22;35050;51.316;5.994;2023-06-26T03:55:25;22.50;99.90
49224;DHT22;35050;51.316;5.994;2023-06-26T03:57:51;22.50;99.90
49224;DHT22;35050;51.316;5.994;2023-06-26T04:00:17;22.60;99.90
49224;DHT22;35050;51.316;5.994;2023-06-26T04:02:43;22.40;99.90
49224;DHT22;35050;51.316;5.994;2023-06-26T04:05:08;22.30;99.90
49224;DHT22;35050;51.316;5.994;2023-06-26T04:07:34;22.30;99.90
49224;DHT22;35050;51.316;5.994;2023-06-26T04:10:01;22.40;99.90
49224;DHT22;35050;51.316;5.994;2023-06-26T04:12:27;22.40;99.90
49224;DHT22;35050;51.316;5.994;2023-06-26T04:14:52;22.40;99.90
49224;DHT22;35050;51.316;5.994;2023-06-26T04:17:18;22.40;99.90
49224;DHT22;35050;51.316;5.994;2023-06-26T04:19:44;22.30;99.90
49224;DHT22;35050;51.316;5.994;2023-06-26T04:22:09;22.50;99.90
49224;DHT22;35050;51.316;5.994;2023-06-26T04:24:35;22.40;99.90
49224;DHT22;35050;51.316;5.994;2023-06-26T04:27:01;22.50;99.90
49224;DHT22;35050;51.316;5.994;2023-06-26T04:29:27;22.50;99.90
49224;DHT22;35050;51.316;5.994;2023-06-26T04:31:53;22.50;99.90
49224;DHT22;35050;51.316;5.994;2023-06-26T04:34:27;22.60;99.90
49224;DHT22;35050;51.316;5.994;2023-06-26T04:36:53;22.40;99.90
49224;DHT22;35050;51.316;5.994;2023-06-26T04:39:19;22.30;99.90
49224;DHT22;35050;51.316;5.994;2023-06-26T04:41:45;22.40;99.90
49224;DHT22;35050;51.316;5.994;2023-06-26T04:44:11;22.40;99.90
49224;DHT22;35050;51.316;5.994;2023-06-26T04:46:37;22.00;99.90
49224;DHT22;35050;51.316;5.994;2023-06-26T04:49:07;22.00;99.90
49224;DHT22;35050;51.316;5.994;2023-06-26T04:51:33;22.10;99.90
49224;DHT22;35050;51.316;5.994;2023-06-26T04:53:58;22.10;99.90
49224;DHT22;35050;51.316;5.994;2023-06-26T04:56:24;22.20;99.90
49224;DHT22;35050;51.316;5.994;2023-06-26T04:58:49;22.20;99.90
49224;DHT22;35050;51.316;5.994;2023-06-26T05:01:15;22.40;99.90
49224;DHT22;35050;51.316;5.994;2023-06-26T05:03:41;22.30;99.90
49224;DHT22;35050;51.316;5.994;2023-06-26T05:06:06;22.20;99.90
49224;DHT22;35050;51.316;5.994;2023-06-26T05:08:32;22.30;99.90
49224;DHT22;35050;51.316;5.994;2023-06-26T05:10:57;22.30;99.90
49224;DHT22;35050;51.316;5.994;2023-06-26T05:13:24;22.40;99.90
49224;DHT22;35050;51.316;5.994;2023-06-26T05:15:51;22.40;99.90
49224;DHT22;35050;51.316;5.994;2023-06-26T05:18:17;22.40;99.90
49224;DHT22;35050;51.316;5.994;2023-06-26T05:20:43;22.30;99.90
49224;DHT22;35050;51.316;5.994;2023-06-26T05:23:11;22.20;99.90
49224;DHT22;35050;51.316;5.994;2023-06-26T05:25:37;22.40;99.90
49224;DHT22;35050;51.316;5.994;2023-06-26T05:28:03;22.50;99.90
49224;DHT22;35050;51.316;5.994;2023-06-26T05:30:34;22.50;99.90
49224;DHT22;35050;51.316;5.994;2023-06-26T05:33:03;22.70;99.90
49224;DHT22;35050;51.316;5.994;2023-06-26T05:35:29;22.80;99.90
49224;DHT22;35050;51.316;5.994;2023-06-26T05:37:56;22.60;99.90
49224;DHT22;35050;51.316;5.994;2023-06-26T05:40:22;22.40;99.90
49224;DHT22;35050;51.316;5.994;2023-06-26T05:42:49;22.20;99.90
49224;DHT22;35050;51.316;5.994;2023-06-26T05:45:15;22.40;99.90
49224;DHT22;35050;51.316;5.994;2023-06-26T05:47:41;22.30;99.90
49224;DHT22;35050;51.316;5.994;2023-06-26T05:50:08;22.30;99.90
49224;DHT22;35050;51.316;5.994;2023-06-26T05:52:34;22.40;99.90
49224;DHT22;35050;51.316;5.994;2023-06-26T05:55:01;22.30;99.90
49224;DHT22;35050;51.316;5.994;2023-06-26T05:57:28;22.30;99.90
49224;DHT22;35050;51.316;5.994;2023-06-26T05:59:55;22.40;99.90
49224;DHT22;35050;51.316;5.994;2023-06-26T06:02:21;22.30;99.90
49224;DHT22;35050;51.316;5.994;2023-06-26T06:04:47;22.20;99.90
49224;DHT22;35050;51.316;5.994;2023-06-26T06:07:12;22.30;99.90
49224;DHT22;35050;51.316;5.994;2023-06-26T06:09:38;22.50;99.90
49224;DHT22;35050;51.316;5.994;2023-06-26T06:12:05;22.30;99.90
49224;DHT22;35050;51.316;5.994;2023-06-26T06:14:31;22.30;99.90
49224;DHT22;35050;51.316;5.994;2023-06-26T06:16:57;22.60;99.90
49224;DHT22;35050;51.316;5.994;2023-06-26T06:19:23;22.40;99.90
49224;DHT22;35050;51.316;5.994;2023-06-26T06:21:49;22.30;99.90
49224;DHT22;35050;51.316;5.994;2023-06-26T06:24:14;22.50;99.90
49224;DHT22;35050;51.316;5.994;2023-06-26T06:26:40;22.60;99.90
49224;DHT22;35050;51.316;5.994;2023-06-26T06:29:06;22.60;99.90
49224;DHT22;35050;51.316;5.994;2023-06-26T06:31:31;22.60;99.90
49224;DHT22;35050;51.316;5.994;2023-06-26T06:33:57;22.60;99.90
49224;DHT22;35050;51.316;5.994;2023-06-26T06:36:23;22.60;99.90
49224;DHT22;35050;51.316;5.994;2023-06-26T06:38:48;22.60;99.90
49224;DHT22;35050;51.316;5.994;2023-06-26T06:41:14;22.80;99.90
49224;DHT22;35050;51.316;5.994;2023-06-26T06:43:41;23.00;99.90
49224;DHT22;35050;51.316;5.994;2023-06-26T06:46:07;22.90;99.90
49224;DHT22;35050;51.316;5.994;2023-06-26T06:48:33;23.30;99.90
49224;DHT22;35050;51.316;5.994;2023-06-26T06:50:58;23.40;99.90
49224;DHT22;35050;51.316;5.994;2023-06-26T06:53:24;22.80;99.90
49224;DHT22;35050;51.316;5.994;2023-06-26T06:55:49;22.60;99.90
49224;DHT22;35050;51.316;5.994;2023-06-26T06:58:15;22.90;99.90
49224;DHT22;35050;51.316;5.994;2023-06-26T07:00:48;23.20;99.90
49224;DHT22;35050;51.316;5.994;2023-06-26T07:03:14;23.20;99.90
49224;DHT22;35050;51.316;5.994;2023-06-26T07:05:41;23.40;99.90
49224;DHT22;35050;51.316;5.994;2023-06-26T07:08:07;23.60;99.90
49224;DHT22;35050;51.316;5.994;2023-06-26T07:10:34;23.40;99.90
49224;DHT22;35050;51.316;5.994;2023-06-26T07:12:59;23.50;99.90
49224;DHT22;35050;51.316;5.994;2023-06-26T07:15:25;23.10;99.90
49224;DHT22;35050;51.316;5.994;2023-06-26T07:17:51;23.10;99.90
49224;DHT22;35050;51.316;5.994;2023-06-26T07:20:16;23.40;99.90
49224;DHT22;35050;51.316;5.994;2023-06-26T07:22:43;23.30;99.90
49224;DHT22;35050;51.316;5.994;2023-06-26T07:25:10;23.20;99.90
49224;DHT22;35050;51.316;5.994;2023-06-26T07:27:37;23.30;99.90
49224;DHT22;35050;51.316;5.994;2023-06-26T07:30:03;23.30;99.90
49224;DHT22;35050;51.316;5.994;2023-06-26T07:32:29;23.30;99.90
49224;DHT22;35050;51.316;5.994;2023-06-26T07:34:54;23.30;99.90
49224;DHT22;35050;51.316;5.994;2023-06-26T07:37:20;23.30;99.90
49224;DHT22;35050;51.316;5.994;2023-06-26T07:39:46;23.20;99.90
49224;DHT22;35050;51.316;5.994;2023-06-26T07:42:12;23.40;99.90
49224;DHT22;35050;51.316;5.994;2023-06-26T07:44:38;23.50;99.90
49224;DHT22;35050;51.316;5.994;2023-06-26T07:47:04;23.40;99.90
49224;DHT22;35050;51.316;5.994;2023-06-26T07:49:29;23.80;99.90
49224;DHT22;35050;51.316;5.994;2023-06-26T07:51:55;23.60;99.90
49224;DHT22;35050;51.316;5.994;2023-06-26T07:54:21;23.80;99.90
49224;DHT22;35050;51.316;5.994;2023-06-26T07:56:58;24.10;99.90
49224;DHT22;35050;51.316;5.994;2023-06-26T07:59:25;24.00;99.90
49224;DHT22;35050;51.316;5.994;2023-06-26T08:01:52;24.10;99.90
49224;DHT22;35050;51.316;5.994;2023-06-26T08:04:24;24.00;99.90
49224;DHT22;35050;51.316;5.994;2023-06-26T08:06:54;24.30;99.90
49224;DHT22;35050;51.316;5.994;2023-06-26T08:09:22;23.80;99.90
49224;DHT22;35050;51.316;5.994;2023-06-26T08:11:48;24.00;99.90
49224;DHT22;35050;51.316;5.994;2023-06-26T08:14:15;23.90;99.90
49224;DHT22;35050;51.316;5.994;2023-06-26T08:16:41;23.50;99.90
49224;DHT22;35050;51.316;5.994;2023-06-26T08:19:08;23.40;99.90
49224;DHT22;35050;51.316;5.994;2023-06-26T08:21:33;24.20;99.90
49224;DHT22;35050;51.316;5.994;2023-06-26T08:23:59;24.60;99.90
49224;DHT22;35050;51.316;5.994;2023-06-26T08:26:25;24.40;99.90
49224;DHT22;35050;51.316;5.994;2023-06-26T08:28:51;23.80;99.90
49224;DHT22;35050;51.316;5.994;2023-06-26T08:31:17;23.90;99.90
49224;DHT22;35050;51.316;5.994;2023-06-26T08:33:43;24.30;99.90
49224;DHT22;35050;51.316;5.994;2023-06-26T08:36:09;25.10;99.90
49224;DHT22;35050;51.316;5.994;2023-06-26T08:38:34;25.20;99.90
49224;DHT22;35050;51.316;5.994;2023-06-26T08:41:00;24.40;99.90
49224;DHT22;35050;51.316;5.994;2023-06-26T08:43:26;24.20;99.90
49224;DHT22;35050;51.316;5.994;2023-06-26T08:45:52;24.20;99.90
49224;DHT22;35050;51.316;5.994;2023-06-26T08:48:18;24.60;99.90
49224;DHT22;35050;51.316;5.994;2023-06-26T08:50:44;24.50;99.90
49224;DHT22;35050;51.316;5.994;2023-06-26T08:55:43;25.10;99.90
49224;DHT22;35050;51.316;5.994;2023-06-26T08:58:10;25.30;99.90
49224;DHT22;35050;51.316;5.994;2023-06-26T09:00:35;24.80;99.90
49224;DHT22;35050;51.316;5.994;2023-06-26T09:03:03;25.30;99.90
49224;DHT22;35050;51.316;5.994;2023-06-26T09:05:29;25.00;99.70
49224;DHT22;35050;51.316;5.994;2023-06-26T09:07:57;25.20;99.40
49224;DHT22;35050;51.316;5.994;2023-06-26T09:10:24;25.30;99.40
49224;DHT22;35050;51.316;5.994;2023-06-26T09:12:50;24.90;99.70
49224;DHT22;35050;51.316;5.994;2023-06-26T09:15:18;25.40;99.90
49224;DHT22;35050;51.316;5.994;2023-06-26T09:17:44;26.10;99.40
49224;DHT22;35050;51.316;5.994;2023-06-26T09:20:10;25.70;98.80
49224;DHT22;35050;51.316;5.994;2023-06-26T09:22:39;24.90;99.30
49224;DHT22;35050;51.316;5.994;2023-06-26T09:25:06;25.10;99.10
49224;DHT22;35050;51.316;5.994;2023-06-26T09:27:31;25.30;99.00
49224;DHT22;35050;51.316;5.994;2023-06-26T09:29:57;25.10;97.60
49224;DHT22;35050;51.316;5.994;2023-06-26T09:32:26;25.20;97.70
49224;DHT22;35050;51.316;5.994;2023-06-26T09:34:53;25.50;96.20
49224;DHT22;35050;51.316;5.994;2023-06-26T09:37:21;26.00;97.30
49224;DHT22;35050;51.316;5.994;2023-06-26T09:39:48;26.10;94.70
49224;DHT22;35050;51.316;5.994;2023-06-26T09:42:14;26.20;94.40
49224;DHT22;35050;51.316;5.994;2023-06-26T09:44:44;26.10;93.90
49224;DHT22;35050;51.316;5.994;2023-06-26T09:47:11;26.10;93.50
49224;DHT22;35050;51.316;5.994;2023-06-26T09:49:36;26.20;93.00
49224;DHT22;35050;51.316;5.994;2023-06-26T09:52:02;26.20;93.40
49224;DHT22;35050;51.316;5.994;2023-06-26T09:54:28;26.20;93.60
49224;DHT22;35050;51.316;5.994;2023-06-26T09:56:57;26.60;92.80
49224;DHT22;35050;51.316;5.994;2023-06-26T09:59:32;26.30;92.50
49224;DHT22;35050;51.316;5.994;2023-06-26T10:01:59;26.50;93.60
49224;DHT22;35050;51.316;5.994;2023-06-26T10:04:25;27.20;93.10
49224;DHT22;35050;51.316;5.994;2023-06-26T10:06:51;26.90;92.10
49224;DHT22;35050;51.316;5.994;2023-06-26T10:09:19;26.90;91.70
49224;DHT22;35050;51.316;5.994;2023-06-26T10:14:15;27.10;92.50
49224;DHT22;35050;51.316;5.994;2023-06-26T10:16:42;26.80;91.80
49224;DHT22;35050;51.316;5.994;2023-06-26T10:19:08;26.50;92.20
49224;DHT22;35050;51.316;5.994;2023-06-26T10:21:37;27.00;92.80
49224;DHT22;35050;51.316;5.994;2023-06-26T10:24:05;26.90;91.80
49224;DHT22;35050;51.316;5.994;2023-06-26T10:26:35;25.70;92.70
49224;DHT22;35050;51.316;5.994;2023-06-26T10:29:04;25.40;93.20
49224;DHT22;35050;51.316;5.994;2023-06-26T10:31:32;25.80;92.30
49224;DHT22;35050;51.316;5.994;2023-06-26T10:33:58;26.20;92.20
49224;DHT22;35050;51.316;5.994;2023-06-26T10:36:29;26.70;91.30
49224;DHT22;35050;51.316;5.994;2023-06-26T10:38:58;26.90;91.00
49224;DHT22;35050;51.316;5.994;2023-06-26T10:41:25;26.50;90.60
49224;DHT22;35050;51.316;5.994;2023-06-26T10:46:28;26.30;89.90
49224;DHT22;35050;51.316;5.994;2023-06-26T10:49:01;26.40;89.70
49224;DHT22;35050;51.316;5.994;2023-06-26T10:51:27;26.70;89.60
49224;DHT22;35050;51.316;5.994;2023-06-26T10:53:57;25.80;85.60
49224;DHT22;35050;51.316;5.994;2023-06-26T10:56:55;26.10;85.90
49224;DHT22;35050;51.316;5.994;2023-06-26T10:59:25;26.50;86.00
49224;DHT22;35050;51.316;5.994;2023-06-26T11:01:56;26.90;81.90
49224;DHT22;35050;51.316;5.994;2023-06-26T11:04:39;26.60;81.50
49224;DHT22;35050;51.316;5.994;2023-06-26T11:07:25;26.60;83.60
49224;DHT22;35050;51.316;5.994;2023-06-26T11:10:00;26.50;84.70
49224;DHT22;35050;51.316;5.994;2023-06-26T11:12:37;26.60;84.50
49224;DHT22;35050;51.316;5.994;2023-06-26T11:15:11;27.20;82.30
49224;DHT22;35050;51.316;5.994;2023-06-26T11:17:37;27.30;82.40
49224;DHT22;35050;51.316;5.994;2023-06-26T11:20:09;27.20;83.80
49224;DHT22;35050;51.316;5.994;2023-06-26T11:22:36;27.10;84.30
49224;DHT22;35050;51.316;5.994;2023-06-26T11:25:03;28.10;85.90
49224;DHT22;35050;51.316;5.994;2023-06-26T11:27:39;28.10;83.10
49224;DHT22;35050;51.316;5.994;2023-06-26T11:30:06;28.20;82.70
49224;DHT22;35050;51.316;5.994;2023-06-26T11:32:31;27.60;82.10
49224;DHT22;35050;51.316;5.994;2023-06-26T11:35:00;28.00;83.00
49224;DHT22;35050;51.316;5.994;2023-06-26T11:37:26;27.70;81.10
49224;DHT22;35050;51.316;5.994;2023-06-26T11:39:52;27.70;82.30
49224;DHT22;35050;51.316;5.994;2023-06-26T11:42:19;27.30;81.70
49224;DHT22;35050;51.316;5.994;2023-06-26T11:44:45;27.70;80.30
49224;DHT22;35050;51.316;5.994;2023-06-26T11:47:18;28.00;81.20
49224;DHT22;35050;51.316;5.994;2023-06-26T11:49:45;27.90;80.40
49224;DHT22;35050;51.316;5.994;2023-06-26T11:52:11;27.90;79.30
49224;DHT22;35050;51.316;5.994;2023-06-26T11:54:37;27.60;80.10
49224;DHT22;35050;51.316;5.994;2023-06-26T11:57:03;27.90;80.80
49224;DHT22;35050;51.316;5.994;2023-06-26T12:01:59;27.80;81.00
49224;DHT22;35050;51.316;5.994;2023-06-26T12:04:25;27.50;81.70
49224;DHT22;35050;51.316;5.994;2023-06-26T12:06:52;28.10;79.10
49224;DHT22;35050;51.316;5.994;2023-06-26T12:09:23;28.70;80.10
49224;DHT22;35050;51.316;5.994;2023-06-26T12:11:55;27.80;78.50
49224;DHT22;35050;51.316;5.994;2023-06-26T12:14:22;28.10;79.50
49224;DHT22;35050;51.316;5.994;2023-06-26T12:16:47;28.40;78.60
49224;DHT22;35050;51.316;5.994;2023-06-26T12:19:14;28.00;81.20
49224;DHT22;35050;51.316;5.994;2023-06-26T12:24:19;28.20;80.70
49224;DHT22;35050;51.316;5.994;2023-06-26T12:26:49;29.00;80.10
49224;DHT22;35050;51.316;5.994;2023-06-26T12:29:17;29.20;77.70
49224;DHT22;35050;51.316;5.994;2023-06-26T12:31:50;28.90;78.70
49224;DHT22;35050;51.316;5.994;2023-06-26T12:34:20;28.80;78.50
49224;DHT22;35050;51.316;5.994;2023-06-26T12:36:47;28.80;78.10
49224;DHT22;35050;51.316;5.994;2023-06-26T12:39:19;28.60;77.50
49224;DHT22;35050;51.316;5.994;2023-06-26T12:41:52;28.60;77.70
49224;DHT22;35050;51.316;5.994;2023-06-26T12:46:53;28.60;78.10
49224;DHT22;35050;51.316;5.994;2023-06-26T12:49:18;28.80;77.20
49224;DHT22;35050;51.316;5.994;2023-06-26T12:51:44;28.10;77.80
49224;DHT22;35050;51.316;5.994;2023-06-26T12:54:10;28.20;75.50
49224;DHT22;35050;51.316;5.994;2023-06-26T12:56:36;29.10;77.60
49224;DHT22;35050;51.316;5.994;2023-06-26T12:59:02;28.80;76.00
49224;DHT22;35050;51.316;5.994;2023-06-26T13:01:27;28.70;76.50
49224;DHT22;35050;51.316;5.994;2023-06-26T13:03:53;28.00;77.30
49224;DHT22;35050;51.316;5.994;2023-06-26T13:06:19;28.70;77.20
49224;DHT22;35050;51.316;5.994;2023-06-26T13:08:45;28.00;77.40
49224;DHT22;35050;51.316;5.994;2023-06-26T13:11:11;28.60;79.40
49224;DHT22;35050;51.316;5.994;2023-06-26T13:13:36;28.70;78.30
49224;DHT22;35050;51.316;5.994;2023-06-26T13:16:02;28.80;75.80
49224;DHT22;35050;51.316;5.994;2023-06-26T13:18:27;29.20;77.50
49224;DHT22;35050;51.316;5.994;2023-06-26T13:20:53;28.80;76.90
49224;DHT22;35050;51.316;5.994;2023-06-26T13:23:19;29.20;78.20
49224;DHT22;35050;51.316;5.994;2023-06-26T13:25:45;29.20;76.00
49224;DHT22;35050;51.316;5.994;2023-06-26T13:28:11;29.30;78.00
49224;DHT22;35050;51.316;5.994;2023-06-26T13:30:37;29.50;77.80
49224;DHT22;35050;51.316;5.994;2023-06-26T13:33:02;29.10;75.50
49224;DHT22;35050;51.316;5.994;2023-06-26T13:35:28;29.60;76.10
49224;DHT22;35050;51.316;5.994;2023-06-26T13:37:54;29.50;76.00
49224;DHT22;35050;51.316;5.994;2023-06-26T13:40:19;28.90;74.60
49224;DHT22;35050;51.316;5.994;2023-06-26T13:42:45;28.70;73.60
49224;DHT22;35050;51.316;5.994;2023-06-26T13:45:11;28.20;74.70
49224;DHT22;35050;51.316;5.994;2023-06-26T13:47:37;28.60;74.70
49224;DHT22;35050;51.316;5.994;2023-06-26T13:50:09;28.50;75.10
49224;DHT22;35050;51.316;5.994;2023-06-26T13:52:35;28.80;76.00
49224;DHT22;35050;51.316;5.994;2023-06-26T13:55:01;28.60;74.70
49224;DHT22;35050;51.316;5.994;2023-06-26T13:57:30;27.80;74.30
49224;DHT22;35050;51.316;5.994;2023-06-26T13:59:55;28.50;74.50
49224;DHT22;35050;51.316;5.994;2023-06-26T14:02:22;28.50;73.20
49224;DHT22;35050;51.316;5.994;2023-06-26T14:04:47;28.10;73.40
49224;DHT22;35050;51.316;5.994;2023-06-26T14:07:13;28.50;73.70
49224;DHT22;35050;51.316;5.994;2023-06-26T14:09:40;29.20;74.80
49224;DHT22;35050;51.316;5.994;2023-06-26T14:12:06;28.60;73.10
49224;DHT22;35050;51.316;5.994;2023-06-26T14:14:32;27.90;73.80
49224;DHT22;35050;51.316;5.994;2023-06-26T14:16:58;27.30;74.40
49224;DHT22;35050;51.316;5.994;2023-06-26T14:19:24;27.00;75.90
49224;DHT22;35050;51.316;5.994;2023-06-26T14:21:51;27.40;74.70
49224;DHT22;35050;51.316;5.994;2023-06-26T14:24:16;28.40;74.70
49224;DHT22;35050;51.316;5.994;2023-06-26T14:26:42;28.70;74.60
49224;DHT22;35050;51.316;5.994;2023-06-26T14:29:08;28.20;73.70
49224;DHT22;35050;51.316;5.994;2023-06-26T14:31:33;27.90;73.00
49224;DHT22;35050;51.316;5.994;2023-06-26T14:33:59;28.40;74.70
49224;DHT22;35050;51.316;5.994;2023-06-26T14:36:25;28.20;73.50
49224;DHT22;35050;51.316;5.994;2023-06-26T14:38:52;27.90;72.40
49224;DHT22;35050;51.316;5.994;2023-06-26T14:41:18;27.80;74.30
49224;DHT22;35050;51.316;5.994;2023-06-26T14:43:43;28.20;74.60
49224;DHT22;35050;51.316;5.994;2023-06-26T14:46:11;28.10;74.20
49224;DHT22;35050;51.316;5.994;2023-06-26T14:48:36;27.40;72.60
49224;DHT22;35050;51.316;5.994;2023-06-26T14:51:02;27.10;74.10
49224;DHT22;35050;51.316;5.994;2023-06-26T14:53:28;27.00;74.30
49224;DHT22;35050;51.316;5.994;2023-06-26T14:55:53;27.80;74.10
49224;DHT22;35050;51.316;5.994;2023-06-26T14:58:19;27.80;74.10
49224;DHT22;35050;51.316;5.994;2023-06-26T15:00:44;27.70;73.30
49224;DHT22;35050;51.316;5.994;2023-06-26T15:03:10;28.10;74.50
49224;DHT22;35050;51.316;5.994;2023-06-26T15:05:36;27.70;73.60
49224;DHT22;35050;51.316;5.994;2023-06-26T15:08:02;27.40;74.60
49224;DHT22;35050;51.316;5.994;2023-06-26T15:10:28;27.30;74.90
49224;DHT22;35050;51.316;5.994;2023-06-26T15:12:53;27.40;75.60
49224;DHT22;35050;51.316;5.994;2023-06-26T15:15:19;28.10;75.50
49224;DHT22;35050;51.316;5.994;2023-06-26T15:17:45;27.90;75.30
49224;DHT22;35050;51.316;5.994;2023-06-26T15:20:10;27.80;74.40
49224;DHT22;35050;51.316;5.994;2023-06-26T15:22:36;27.60;74.70
49224;DHT22;35050;51.316;5.994;2023-06-26T15:25:02;27.60;76.90
49224;DHT22;35050;51.316;5.994;2023-06-26T15:27:27;27.40;74.90
49224;DHT22;35050;51.316;5.994;2023-06-26T15:29:53;27.40;76.70
49224;DHT22;35050;51.316;5.994;2023-06-26T15:32:19;27.10;76.50
49224;DHT22;35050;51.316;5.994;2023-06-26T15:34:45;26.80;76.20
49224;DHT22;35050;51.316;5.994;2023-06-26T15:37:12;26.40;77.10
49224;DHT22;35050;51.316;5.994;2023-06-26T15:39:38;26.90;77.00
49224;DHT22;35050;51.316;5.994;2023-06-26T15:42:05;26.80;77.70
49224;DHT22;35050;51.316;5.994;2023-06-26T15:44:30;26.80;79.80
49224;DHT22;35050;51.316;5.994;2023-06-26T15:46:58;26.70;78.40
49224;DHT22;35050;51.316;5.994;2023-06-26T15:49:24;27.10;79.10